Accueil
METAR-TAF:

METAR-TAF

Aéroports :

Aérodrome de Granges

Granges, Suisse

latitude: 47-10-53N, longitude: 007-24-59E, altitude: 430 m

Observation

Le bulletin a été fait il y a 16 minutes, à 13:20 UTC
Vent 4 kt de nord/nord-est
Température 4°C
Humidité 87%
Pression 1016 hPa
Visibilité 10 km ou plus
Ciel couvert à une hauteur de 2900 ft

METAR: LSZG 191320Z 03004KT 9999 OVC029 04/02 Q1016 NOSIG

Heure: 14:36 (13:36 UTC)

Prévision

Le bulletin a été fait il y a 2 heures et 11 minutes, à 11:25 UTC
Prévision valable du 19 à 12 UTC au 19 à 21 UTC
Vent 6 kt de nord-est
Visibilité 10 km ou plus
Nuages fragmentés à une hauteur de 2900 ft

TAF: LSZG 191125Z 1912/1921 05006KT 9999 BKN029

Observations et prévisions météorologiques de plus de 4000 aéroports (messages METAR et TAF).

Les stations disponibles sont représentées par des disques jaunes et rouges sur la carte.

Passer la souris dessus pour voir le nom de la station.

Cliquer dessus pour voir les observations et prévisions météorologiques.

Pour changer de carte: cliquez sur les boutons verts avec une croix noire pour zoomer, sur le bouton vert avec un tiret pour effectuer un zoom arrière, ou sur les flèches vertes pour les cartes adjacentes.


METAR-TAF: